createdAt,value
2023-01-30T00:00:54.442Z,100.00
2023-01-30T00:03:23.168Z,100.00
2023-01-30T00:05:52.324Z,100.00
2023-01-30T00:08:20.149Z,100.00
2023-01-30T00:10:48.221Z,100.00
2023-01-30T00:13:16.513Z,100.00
2023-01-30T00:15:44.225Z,100.00
2023-01-30T00:18:11.877Z,100.00
2023-01-30T00:20:39.510Z,100.00
2023-01-30T00:23:08.402Z,100.00
2023-01-30T00:25:36.162Z,100.00
2023-01-30T00:28:04.010Z,100.00
2023-01-30T00:30:32.173Z,100.00
2023-01-30T00:33:00.571Z,100.00
2023-01-30T00:35:29.412Z,100.00
2023-01-30T00:37:58.197Z,100.00
2023-01-30T00:40:28.581Z,100.00
2023-01-30T00:43:14.316Z,100.00
2023-01-30T00:46:00.691Z,100.00
2023-01-30T00:48:28.729Z,100.00
2023-01-30T00:50:56.350Z,100.00
2023-01-30T00:53:24.232Z,100.00
2023-01-30T00:55:53.359Z,100.00
2023-01-30T00:58:21.272Z,100.00
2023-01-30T01:00:49.151Z,100.00
2023-01-30T01:03:17.096Z,100.00
2023-01-30T01:05:44.879Z,100.00
2023-01-30T01:08:12.704Z,100.00
2023-01-30T01:10:40.301Z,100.00
2023-01-30T01:13:10.504Z,100.00
2023-01-30T01:15:38.244Z,100.00
2023-01-30T01:18:06.197Z,100.00
2023-01-30T01:20:33.829Z,100.00
2023-01-30T01:23:01.547Z,100.00
2023-01-30T01:25:29.377Z,100.00
2023-01-30T01:27:57.068Z,100.00
2023-01-30T01:30:26.179Z,100.00
2023-01-30T01:32:53.901Z,100.00
2023-01-30T01:35:21.519Z,100.00
2023-01-30T01:37:49.125Z,100.00
2023-01-30T01:40:36.788Z,100.00
2023-01-30T01:43:07.205Z,100.00
2023-01-30T01:45:36.432Z,100.00
2023-01-30T01:48:06.728Z,100.00
2023-01-30T01:50:41.859Z,100.00
2023-01-30T01:53:09.800Z,100.00
2023-01-30T01:55:38.459Z,100.00
2023-01-30T01:58:09.005Z,100.00
2023-01-30T02:00:37.956Z,100.00
2023-01-30T02:03:08.302Z,100.00
2023-01-30T02:05:38.602Z,100.00
2023-01-30T02:08:08.914Z,100.00
2023-01-30T02:10:42.686Z,100.00
2023-01-30T02:13:10.286Z,100.00
2023-01-30T02:15:39.316Z,100.00
2023-01-30T02:18:07.146Z,100.00
2023-01-30T02:20:50.067Z,100.00
2023-01-30T02:23:45.529Z,100.00
2023-01-30T02:26:47.222Z,100.00
2023-01-30T02:29:49.263Z,100.00
2023-01-30T02:32:23.807Z,100.00
2023-01-30T02:34:57.055Z,100.00
2023-01-30T02:37:31.054Z,100.00
2023-01-30T02:40:09.950Z,100.00
2023-01-30T02:42:40.135Z,100.00
2023-01-30T02:45:11.703Z,100.00
2023-01-30T02:47:43.903Z,100.00
2023-01-30T02:50:14.414Z,100.00
2023-01-30T02:52:42.244Z,100.00
2023-01-30T02:55:11.116Z,100.00
2023-01-30T02:57:38.779Z,100.00
2023-01-30T03:00:08.146Z,100.00
2023-01-30T03:03:07.152Z,100.00
2023-01-30T03:05:49.701Z,100.00
2023-01-30T03:08:24.580Z,100.00
2023-01-30T03:10:56.770Z,100.00
2023-01-30T03:13:31.098Z,100.00
2023-01-30T03:16:03.903Z,100.00
2023-01-30T03:18:32.926Z,100.00
2023-01-30T03:21:06.015Z,100.00
2023-01-30T03:23:33.947Z,100.00
2023-01-30T03:26:01.991Z,100.00
2023-01-30T03:28:29.680Z,100.00
2023-01-30T03:30:57.347Z,100.00
2023-01-30T03:33:24.999Z,100.00
2023-01-30T03:35:54.092Z,100.00
2023-01-30T03:38:21.818Z,100.00
2023-01-30T03:40:49.496Z,100.00
2023-01-30T03:43:17.128Z,100.00
2023-01-30T03:45:44.774Z,100.00
2023-01-30T03:48:12.379Z,100.00
2023-01-30T03:50:40.186Z,100.00
2023-01-30T03:53:09.174Z,100.00
2023-01-30T03:55:36.805Z,100.00
2023-01-30T03:58:04.397Z,100.00
2023-01-30T04:00:32.192Z,100.00
2023-01-30T04:02:59.935Z,100.00
2023-01-30T04:05:27.545Z,100.00
2023-01-30T04:07:57.790Z,100.00
2023-01-30T04:10:27.419Z,100.00
2023-01-30T04:12:55.385Z,100.00
2023-01-30T04:15:23.011Z,100.00
2023-01-30T04:17:50.581Z,100.00
2023-01-30T04:20:18.282Z,100.00
2023-01-30T04:22:45.892Z,100.00
2023-01-30T04:25:13.757Z,100.00
2023-01-30T04:27:42.692Z,100.00
2023-01-30T04:30:11.637Z,100.00
2023-01-30T04:32:39.195Z,100.00
2023-01-30T04:35:07.334Z,100.00
2023-01-30T04:37:34.885Z,100.00
2023-01-30T04:40:02.525Z,100.00
2023-01-30T04:42:30.106Z,100.00
2023-01-30T04:44:59.015Z,100.00
2023-01-30T04:47:26.633Z,100.00
2023-01-30T04:49:54.236Z,100.00
2023-01-30T04:52:21.848Z,100.00
2023-01-30T04:54:49.562Z,100.00
2023-01-30T04:57:19.366Z,100.00
2023-01-30T04:59:46.946Z,100.00
2023-01-30T05:02:15.948Z,100.00
2023-01-30T05:04:43.578Z,100.00
2023-01-30T05:07:11.802Z,100.00
2023-01-30T05:09:39.478Z,100.00
2023-01-30T05:12:07.339Z,100.00
2023-01-30T05:14:34.994Z,100.00
2023-01-30T05:17:02.679Z,100.00
2023-01-30T05:19:31.664Z,100.00
2023-01-30T05:21:59.275Z,100.00
2023-01-30T05:24:26.830Z,100.00
2023-01-30T05:26:54.502Z,100.00
2023-01-30T05:29:22.215Z,100.00
2023-01-30T05:31:49.830Z,100.00
2023-01-30T05:34:17.495Z,100.00
2023-01-30T05:36:46.417Z,100.00
2023-01-30T05:39:14.089Z,100.00
2023-01-30T05:41:41.699Z,100.00
2023-01-30T05:44:11.605Z,100.00
2023-01-30T05:46:39.742Z,100.00
2023-01-30T05:49:07.661Z,100.00
2023-01-30T05:51:35.601Z,100.00
2023-01-30T05:54:07.591Z,100.00
2023-01-30T05:56:35.442Z,100.00
2023-01-30T05:59:03.187Z,100.00
2023-01-30T06:01:31.319Z,100.00
2023-01-30T06:03:59.570Z,100.00
2023-01-30T06:06:27.351Z,100.00
2023-01-30T06:08:56.018Z,100.00
2023-01-30T06:11:25.354Z,100.00
2023-01-30T06:13:53.100Z,100.00
2023-01-30T06:16:21.134Z,100.00
2023-01-30T06:18:48.918Z,100.00
2023-01-30T06:21:17.317Z,100.00
2023-01-30T06:23:46.299Z,100.00
2023-01-30T06:26:13.975Z,100.00
2023-01-30T06:28:43.003Z,100.00
2023-01-30T06:31:10.740Z,100.00
2023-01-30T06:33:38.474Z,100.00
2023-01-30T06:36:06.788Z,100.00
2023-01-30T06:38:34.506Z,100.00
2023-01-30T06:41:02.397Z,100.00
2023-01-30T06:43:30.086Z,100.00
2023-01-30T06:46:01.030Z,100.00
2023-01-30T06:48:28.932Z,100.00
2023-01-30T06:50:56.601Z,100.00
2023-01-30T06:53:30.180Z,100.00
2023-01-30T06:55:57.981Z,100.00
2023-01-30T06:58:25.777Z,100.00
2023-01-30T07:00:53.603Z,100.00
2023-01-30T07:03:22.575Z,100.00
2023-01-30T07:05:50.203Z,100.00
2023-01-30T07:08:18.288Z,100.00
2023-01-30T07:10:46.523Z,100.00
2023-01-30T07:13:14.624Z,100.00
2023-01-30T07:15:42.316Z,100.00
2023-01-30T07:18:10.109Z,100.00
2023-01-30T07:20:39.151Z,100.00
2023-01-30T07:23:06.848Z,100.00
2023-01-30T07:25:34.643Z,100.00
2023-01-30T07:28:03.243Z,100.00
2023-01-30T07:30:32.685Z,100.00
2023-01-30T07:33:01.195Z,100.00
2023-01-30T07:35:31.003Z,100.00
2023-01-30T07:38:00.417Z,100.00
2023-01-30T07:40:28.361Z,100.00
2023-01-30T07:43:00.355Z,100.00
2023-01-30T07:45:28.863Z,100.00
2023-01-30T07:47:56.544Z,100.00
2023-01-30T07:50:24.262Z,100.00
2023-01-30T07:52:52.210Z,100.00
2023-01-30T07:55:21.458Z,100.00
2023-01-30T07:57:49.357Z,100.00
2023-01-30T08:00:18.203Z,100.00
2023-01-30T08:02:45.941Z,100.00
2023-01-30T08:05:13.691Z,100.00
2023-01-30T08:07:41.412Z,100.00
2023-01-30T08:10:12.085Z,100.00
2023-01-30T08:12:42.343Z,100.00
2023-01-30T08:15:11.400Z,100.00
2023-01-30T08:17:39.100Z,100.00
2023-01-30T08:20:08.087Z,99.31
2023-01-30T08:22:35.798Z,99.55
2023-01-30T08:25:03.487Z,96.05
2023-01-30T08:27:31.214Z,96.45
2023-01-30T08:30:00.236Z,98.03
2023-01-30T08:32:27.906Z,97.47
2023-01-30T08:34:55.613Z,93.81
2023-01-30T08:37:23.448Z,94.35
2023-01-30T08:39:51.168Z,93.35
2023-01-30T08:42:18.871Z,93.19
2023-01-30T08:44:46.571Z,93.14
2023-01-30T08:47:15.704Z,91.86
2023-01-30T08:49:43.595Z,92.82
2023-01-30T08:52:11.389Z,91.86
2023-01-30T08:54:39.033Z,90.28
2023-01-30T08:57:06.854Z,91.06
2023-01-30T08:59:34.684Z,89.70
2023-01-30T09:02:02.469Z,89.13
2023-01-30T09:04:31.863Z,90.33
2023-01-30T09:06:59.620Z,89.26
2023-01-30T09:09:27.296Z,89.45
2023-01-30T09:11:54.947Z,88.57
2023-01-30T09:14:22.840Z,86.67
2023-01-30T09:16:55.574Z,88.43
2023-01-30T09:19:23.665Z,84.71
2023-01-30T09:21:53.305Z,82.51
2023-01-30T09:24:22.031Z,81.86
2023-01-30T09:26:49.703Z,80.83
2023-01-30T09:29:17.490Z,81.95
2023-01-30T09:31:45.142Z,79.67
2023-01-30T09:34:12.796Z,83.93
2023-01-30T09:36:40.936Z,82.60
2023-01-30T09:39:10.034Z,81.58
2023-01-30T09:41:58.865Z,82.09
2023-01-30T09:44:54.989Z,81.95
2023-01-30T09:47:28.708Z,82.42
2023-01-30T09:50:06.169Z,83.19
2023-01-30T09:52:40.162Z,83.29
2023-01-30T09:55:18.315Z,81.83
2023-01-30T09:57:46.805Z,84.14
2023-01-30T10:00:19.035Z,84.00
2023-01-30T10:02:52.740Z,81.32
2023-01-30T10:05:20.902Z,81.21
2023-01-30T10:08:09.365Z,79.55
2023-01-30T10:10:53.000Z,82.22
2023-01-30T10:13:41.900Z,80.41
2023-01-30T10:16:13.287Z,80.90
2023-01-30T10:18:51.179Z,79.83
2023-01-30T10:21:28.457Z,80.69
2023-01-30T10:24:09.694Z,80.04
2023-01-30T10:26:41.244Z,80.91
2023-01-30T10:29:14.031Z,79.50
2023-01-30T10:31:45.142Z,81.33
2023-01-30T10:34:16.116Z,79.99
2023-01-30T10:36:48.483Z,78.94
2023-01-30T10:39:24.160Z,79.23
2023-01-30T10:41:58.135Z,80.50
2023-01-30T10:44:26.005Z,80.10
2023-01-30T10:47:19.803Z,78.70
2023-01-30T10:49:51.708Z,80.17
2023-01-30T10:52:28.920Z,81.18
2023-01-30T10:55:03.044Z,79.89
2023-01-30T10:57:41.150Z,81.10
2023-01-30T11:00:17.021Z,80.88
2023-01-30T11:02:55.775Z,81.00
2023-01-30T11:05:26.001Z,79.17
2023-01-30T11:07:53.644Z,80.18
2023-01-30T11:10:23.560Z,81.23
2023-01-30T11:12:54.182Z,80.65
2023-01-30T11:15:24.803Z,81.46
2023-01-30T11:18:40.431Z,80.71
2023-01-30T11:21:02.285Z,82.05
2023-01-30T11:23:34.104Z,83.94
2023-01-30T11:26:11.371Z,81.42
2023-01-30T11:28:45.200Z,81.49
2023-01-30T11:31:28.296Z,81.97
2023-01-30T11:34:04.582Z,82.81
2023-01-30T11:36:33.479Z,83.04
2023-01-30T11:39:03.671Z,83.63
2023-01-30T11:41:31.980Z,85.01
2023-01-30T11:44:05.569Z,85.09
2023-01-30T11:46:36.322Z,84.95
2023-01-30T11:49:39.881Z,84.24
2023-01-30T11:51:54.989Z,84.04
2023-01-30T11:54:29.340Z,85.42
2023-01-30T11:56:58.374Z,84.21
2023-01-30T11:59:30.873Z,83.81
2023-01-30T12:02:06.879Z,84.47
2023-01-30T12:04:34.701Z,86.15
2023-01-30T12:07:07.893Z,83.94
2023-01-30T12:09:38.669Z,84.92
2023-01-30T12:12:24.737Z,85.02
2023-01-30T12:14:54.839Z,84.78
2023-01-30T12:17:26.441Z,84.95
2023-01-30T12:19:59.492Z,85.54
2023-01-30T12:22:32.657Z,85.82
2023-01-30T12:25:01.694Z,85.64
2023-01-30T12:27:53.529Z,86.59
2023-01-30T12:30:27.904Z,87.37
2023-01-30T12:35:44.677Z,88.09
2023-01-30T12:38:22.665Z,88.62
2023-01-30T12:40:59.607Z,88.19
2023-01-30T12:43:40.661Z,89.16
2023-01-30T12:46:20.083Z,89.62
2023-01-30T12:49:10.353Z,90.50
2023-01-30T12:51:52.797Z,90.30
2023-01-30T12:54:31.277Z,91.30
2023-01-30T12:57:06.891Z,91.88
2023-01-30T12:59:39.094Z,90.97
2023-01-30T13:02:26.507Z,92.06
2023-01-30T13:05:04.635Z,90.86
2023-01-30T13:07:40.737Z,91.99
2023-01-30T13:10:16.270Z,91.40
2023-01-30T13:12:47.495Z,90.12
2023-01-30T13:15:21.326Z,91.15
2023-01-30T13:17:59.999Z,90.49
2023-01-30T13:20:48.746Z,90.37
2023-01-30T13:23:19.418Z,89.63
2023-01-30T13:25:58.695Z,89.04
2023-01-30T13:28:27.547Z,88.94
2023-01-30T13:30:56.200Z,88.98
2023-01-30T13:33:26.887Z,88.57
2023-01-30T13:35:58.334Z,87.93
2023-01-30T13:38:28.053Z,88.49
2023-01-30T13:40:58.503Z,88.87
2023-01-30T13:43:29.339Z,87.69
2023-01-30T13:45:58.320Z,88.08
2023-01-30T13:48:39.274Z,88.18
2023-01-30T13:51:27.011Z,87.98
2023-01-30T13:54:00.397Z,87.46
2023-01-30T13:56:41.267Z,87.69
2023-01-30T13:59:17.989Z,88.04
2023-01-30T14:02:25.537Z,87.97
2023-01-30T14:04:55.718Z,88.18
2023-01-30T14:07:26.485Z,88.16
2023-01-30T14:10:05.977Z,88.14
2023-01-30T14:12:36.704Z,88.54
2023-01-30T14:15:07.213Z,89.82
2023-01-30T14:17:34.869Z,89.75
2023-01-30T14:20:06.522Z,88.54
2023-01-30T14:22:36.717Z,89.57
2023-01-30T14:25:41.342Z,90.53
2023-01-30T14:28:48.852Z,91.59
2023-01-30T14:31:56.219Z,90.73
2023-01-30T14:34:42.689Z,91.77
2023-01-30T14:38:07.675Z,92.69
2023-01-30T14:40:46.358Z,93.60
2023-01-30T14:43:52.346Z,94.03
2023-01-30T14:46:54.222Z,94.40
2023-01-30T14:49:27.645Z,94.26
2023-01-30T14:51:56.253Z,95.04
2023-01-30T14:54:40.893Z,95.98
2023-01-30T14:57:19.283Z,96.47
2023-01-30T15:00:03.300Z,97.46
2023-01-30T15:02:43.678Z,98.77
2023-01-30T15:05:14.749Z,98.97
2023-01-30T15:07:45.029Z,98.21
2023-01-30T15:10:27.820Z,98.82
2023-01-30T15:13:30.874Z,99.30
2023-01-30T15:16:08.289Z,99.53
2023-01-30T15:18:51.578Z,99.99
2023-01-30T15:21:49.535Z,100.00
2023-01-30T15:24:44.454Z,100.00
2023-01-30T15:27:19.040Z,100.00
2023-01-30T15:30:04.085Z,100.00
2023-01-30T15:32:33.152Z,100.00
2023-01-30T15:35:02.978Z,100.00
2023-01-30T15:37:32.928Z,100.00
2023-01-30T15:40:28.481Z,100.00
2023-01-30T15:43:14.185Z,100.00
2023-01-30T15:45:47.490Z,100.00
2023-01-30T15:48:39.075Z,100.00
2023-01-30T15:51:06.840Z,100.00
2023-01-30T15:53:37.466Z,100.00
2023-01-30T15:56:09.322Z,100.00
2023-01-30T15:58:41.397Z,100.00
2023-01-30T16:01:08.957Z,100.00
2023-01-30T16:03:40.955Z,100.00
2023-01-30T16:06:09.417Z,100.00
2023-01-30T16:08:37.676Z,100.00
2023-01-30T16:11:05.587Z,100.00
2023-01-30T16:13:34.958Z,100.00
2023-01-30T16:16:08.182Z,100.00
2023-01-30T16:18:38.416Z,100.00
2023-01-30T16:21:08.081Z,100.00
2023-01-30T16:23:38.187Z,100.00
2023-01-30T16:26:08.857Z,100.00
2023-01-30T16:28:36.576Z,100.00
2023-01-30T16:31:07.169Z,100.00
2023-01-30T16:33:37.069Z,100.00
2023-01-30T16:36:06.492Z,100.00
2023-01-30T16:38:39.466Z,100.00
2023-01-30T16:41:07.331Z,100.00
2023-01-30T16:43:35.436Z,100.00
2023-01-30T16:46:39.061Z,100.00
2023-01-30T16:49:19.750Z,100.00
2023-01-30T16:51:47.906Z,100.00
2023-01-30T16:54:22.823Z,100.00
2023-01-30T16:56:52.662Z,100.00
2023-01-30T16:59:22.148Z,100.00
2023-01-30T17:01:54.021Z,100.00
2023-01-30T17:04:24.367Z,100.00
2023-01-30T17:06:54.503Z,100.00
2023-01-30T17:09:41.648Z,100.00
2023-01-30T17:12:38.101Z,100.00
2023-01-30T17:15:28.291Z,100.00
2023-01-30T17:17:55.933Z,100.00
2023-01-30T17:20:25.113Z,100.00
2023-01-30T17:22:53.886Z,100.00
2023-01-30T17:25:28.588Z,100.00
2023-01-30T17:27:57.040Z,100.00
2023-01-30T17:30:24.724Z,100.00
2023-01-30T17:32:52.340Z,100.00
2023-01-30T17:35:20.290Z,100.00
2023-01-30T17:37:56.415Z,100.00
2023-01-30T17:40:34.605Z,100.00
2023-01-30T17:43:02.240Z,100.00
2023-01-30T17:45:29.929Z,100.00
2023-01-30T17:47:57.583Z,100.00
2023-01-30T17:50:25.373Z,100.00
2023-01-30T17:52:54.290Z,100.00
2023-01-30T17:55:22.165Z,100.00
2023-01-30T17:57:49.994Z,100.00
2023-01-30T18:00:20.281Z,100.00
2023-01-30T18:02:48.276Z,100.00
2023-01-30T18:05:16.091Z,100.00
2023-01-30T18:07:43.887Z,100.00
2023-01-30T18:10:18.686Z,100.00
2023-01-30T18:12:47.178Z,100.00
2023-01-30T18:15:16.098Z,100.00
2023-01-30T18:17:47.330Z,100.00
2023-01-30T18:20:17.053Z,100.00
2023-01-30T18:22:45.007Z,100.00
2023-01-30T18:25:14.597Z,100.00
2023-01-30T18:27:43.929Z,100.00
2023-01-30T18:30:15.831Z,100.00
2023-01-30T18:32:52.474Z,100.00
2023-01-30T18:35:21.464Z,100.00
2023-01-30T18:37:49.930Z,100.00
2023-01-30T18:40:20.294Z,100.00
2023-01-30T18:42:48.437Z,100.00
2023-01-30T18:45:16.225Z,100.00
2023-01-30T18:47:44.062Z,100.00
2023-01-30T18:50:12.306Z,100.00
2023-01-30T18:52:40.082Z,100.00
2023-01-30T18:55:08.460Z,100.00
2023-01-30T18:57:37.614Z,100.00
2023-01-30T19:00:06.184Z,100.00
2023-01-30T19:02:34.093Z,100.00
2023-01-30T19:05:01.914Z,100.00
2023-01-30T19:07:29.614Z,100.00
2023-01-30T19:09:57.478Z,100.00
2023-01-30T19:12:42.496Z,100.00
2023-01-30T19:15:12.026Z,100.00
2023-01-30T19:17:39.818Z,100.00
2023-01-30T19:20:11.062Z,100.00
2023-01-30T19:22:39.472Z,100.00
2023-01-30T19:25:08.528Z,100.00
2023-01-30T19:27:37.661Z,100.00
2023-01-30T19:30:07.691Z,100.00
2023-01-30T19:32:36.779Z,100.00
2023-01-30T19:35:04.850Z,100.00
2023-01-30T19:37:32.687Z,100.00
2023-01-30T19:40:00.488Z,100.00
2023-01-30T19:42:28.205Z,100.00
2023-01-30T19:44:56.464Z,100.00
2023-01-30T19:47:24.324Z,100.00
2023-01-30T19:49:54.022Z,100.00
2023-01-30T19:52:21.673Z,100.00
2023-01-30T19:54:49.417Z,100.00
2023-01-30T19:57:17.104Z,100.00
2023-01-30T19:59:45.279Z,100.00
2023-01-30T20:02:13.805Z,100.00
2023-01-30T20:04:43.586Z,100.00
2023-01-30T20:07:12.709Z,100.00
2023-01-30T20:09:40.476Z,100.00
2023-01-30T20:12:08.516Z,100.00
2023-01-30T20:14:36.157Z,100.00
2023-01-30T20:17:03.869Z,100.00
2023-01-30T20:19:31.609Z,100.00
2023-01-30T20:21:59.721Z,100.00
2023-01-30T20:24:29.124Z,100.00
2023-01-30T20:26:56.926Z,100.00
2023-01-30T20:29:24.640Z,100.00
2023-01-30T20:31:53.980Z,100.00
2023-01-30T20:34:21.971Z,100.00
2023-01-30T20:36:49.753Z,100.00
2023-01-30T20:39:20.676Z,100.00
2023-01-30T20:41:50.297Z,100.00
2023-01-30T20:44:18.136Z,100.00
2023-01-30T20:46:47.346Z,100.00
2023-01-30T20:49:16.172Z,100.00
2023-01-30T20:51:45.339Z,100.00
2023-01-30T20:54:14.628Z,100.00
2023-01-30T20:56:43.927Z,100.00
2023-01-30T20:59:14.929Z,100.00
2023-01-30T21:01:42.826Z,100.00
2023-01-30T21:04:14.503Z,100.00
2023-01-30T21:06:45.785Z,100.00
2023-01-30T21:09:15.674Z,100.00
2023-01-30T21:11:43.533Z,100.00
2023-01-30T21:14:11.317Z,100.00
2023-01-30T21:16:40.531Z,100.00
2023-01-30T21:19:13.666Z,100.00
2023-01-30T21:21:43.617Z,100.00
2023-01-30T21:24:14.261Z,100.00
2023-01-30T21:26:46.279Z,100.00
2023-01-30T21:29:14.467Z,100.00
2023-01-30T21:31:43.801Z,100.00
2023-01-30T21:34:12.206Z,100.00
2023-01-30T21:36:40.408Z,100.00
2023-01-30T21:39:25.635Z,100.00
2023-01-30T21:42:10.720Z,100.00
2023-01-30T21:44:39.114Z,100.00
2023-01-30T21:47:08.795Z,100.00
2023-01-30T21:49:37.673Z,100.00
2023-01-30T21:52:05.821Z,100.00
2023-01-30T21:54:33.437Z,100.00
2023-01-30T21:57:01.074Z,100.00
2023-01-30T21:59:28.738Z,100.00
2023-01-30T22:01:56.454Z,100.00
2023-01-30T22:04:25.662Z,100.00
2023-01-30T22:06:53.467Z,100.00
2023-01-30T22:09:21.190Z,100.00
2023-01-30T22:11:49.467Z,100.00
2023-01-30T22:14:17.359Z,100.00
2023-01-30T22:16:45.018Z,100.00
2023-01-30T22:19:14.223Z,100.00
2023-01-30T22:21:43.155Z,100.00
2023-01-30T22:24:11.655Z,100.00
2023-01-30T22:26:39.758Z,100.00
2023-01-30T22:29:07.823Z,100.00
2023-01-30T22:31:37.382Z,100.00
2023-01-30T22:34:06.107Z,100.00
2023-01-30T22:36:35.075Z,100.00
2023-01-30T22:39:04.576Z,100.00
2023-01-30T22:41:34.778Z,100.00
2023-01-30T22:44:03.599Z,100.00
2023-01-30T22:46:32.785Z,100.00
2023-01-30T22:49:01.384Z,100.00
2023-01-30T22:51:30.437Z,100.00
2023-01-30T22:53:59.414Z,100.00
2023-01-30T22:56:29.864Z,100.00
2023-01-30T22:58:58.098Z,100.00
2023-01-30T23:01:27.365Z,100.00
2023-01-30T23:03:56.161Z,100.00
2023-01-30T23:06:24.622Z,100.00
2023-01-30T23:08:52.791Z,100.00
2023-01-30T23:11:22.445Z,100.00
2023-01-30T23:13:52.520Z,100.00
2023-01-30T23:16:25.112Z,100.00
2023-01-30T23:18:58.904Z,100.00
2023-01-30T23:21:28.357Z,100.00
2023-01-30T23:23:59.348Z,100.00
2023-01-30T23:26:33.595Z,100.00
2023-01-30T23:29:03.685Z,100.00
2023-01-30T23:31:31.451Z,100.00
2023-01-30T23:34:01.066Z,100.00
2023-01-30T23:36:29.783Z,100.00
2023-01-30T23:38:59.686Z,100.00
2023-01-30T23:41:29.006Z,100.00
2023-01-30T23:43:57.402Z,100.00
2023-01-30T23:46:27.460Z,100.00
2023-01-30T23:48:57.006Z,100.00
2023-01-30T23:51:26.478Z,100.00
2023-01-30T23:53:54.695Z,100.00
2023-01-30T23:56:24.439Z,100.00
2023-01-30T23:58:52.095Z,100.00
